ADDS METAR Data INFO
IDs: Format: Raw Decoded Include TAF

Data at: 0736 UTC 21 Jul 2018

PAPH 210656Z AUTO 15021KT 10SM OVC100 13/11 A3015 RMK AO2 PK WND 15027/0635 SLP211 T01330106
PAPH 210556Z AUTO 14023G29KT 10SM OVC110 14/11 A3015 RMK AO2 PK WND 14029/0553 SLP211 T01440106 10161 20144 53001
PAPH 210456Z AUTO 15021G26KT 10SM CLR 16/11 A3013 RMK AO2 PK WND 14029/0405 SLP206 T01560111
PAPH 210356Z AUTO 15021G26KT 10SM CLR 16/11 A3013 RMK AO2 PK WND 16028/0338 SLP206 T01560111
PAPH 210256Z AUTO 15021G26KT 10SM FEW025 15/11 A3014 RMK AO2 PK WND 14027/0206 SLP210 T01500111 53002
PAPH 210156Z AUTO 14022G27KT 10SM BKN110 15/11 A3013 RMK AO2 PK WND 15027/0153 SLP205 T01500111
PAPH 210056Z AUTO 15021G27KT 10SM BKN100 16/11 A3014 RMK AO2 PK WND 15029/0031 SLP210 T01560111
PAPH 202356Z AUTO 13021G26KT 10SM FEW080 16/11 A3014 RMK AO2 PK WND 14026/2356 SLP208 T01610111 10183 20150 58005
PAPH 202256Z AUTO 14019G25KT 10SM FEW085 SCT110 18/12 A3015 RMK AO2 SLP213 T01780117
PAPH 202156Z AUTO 14019G23KT 10SM SCT090 17/12 A3015 RMK AO2 SLP211 T01720117
PAPH 202056Z AUTO 15014KT 10SM SCT034 OVC044 17/12 A3015 RMK AO2 SLP214 T01720117 53000
PAPH 201956Z AUTO 16017G22KT 10SM SCT036 17/12 A3014 RMK AO2 SLP210 T01720122
PAPH 201856Z AUTO 15016KT 10SM BKN034 BKN044 17/12 A3015 RMK AO2 SLP212 T01670117
PAPH 201756Z AUTO 15014KT 10SM FEW028 BKN110 15/12 A3015 RMK AO2 SLP214 60002 T01500117 10150 20117 50002
PAPH 201656Z AUTO 28003KT 10SM SCT036 BKN100 13/11 A3016 RMK AO2 SLP215 T01330111
PAPH 201556Z AUTO 34006KT 10SM SCT100 12/11 A3015 RMK AO2 SLP214 T01220111
PAPH 201456Z AUTO 17009KT 10SM OVC095 13/11 A3015 RMK AO2 SLP211 60002 T01330106 56008
PAPH 201356Z AUTO 30004KT 10SM CLR 12/11 A3016 RMK AO2 SLP215 P0001 T01220106
PAPH 201256Z AUTO 13006KT 10SM FEW025 OVC100 12/11 A3016 RMK AO2 RAE35 SLP215 P0001 T01220106
PAPH 201156Z AUTO 17007KT 10SM -RA FEW050 12/11 A3017 RMK AO2 SLP220 P0002 60002 70002 T01220106 10139 20117 58001
PAPH 201056Z AUTO 14010KT 10SM -RA FEW055 13/10 A3017 RMK AO2 RAB08 SLP219 P0000 T01280100
PAPH 200956Z AUTO 12004KT 10SM CLR 13/09 A3018 RMK AO2 SLP222 T01280094
PAPH 200856Z AUTO 14008KT 10SM FEW043 13/09 A3017 RMK AO2 SLP221 T01330094 53002
PAPH 200837Z AUTO 14010KT 10SM SCT029 BKN043 13/10 A3017 RMK AO2
PAPH 200817Z AUTO 11004KT 10SM BKN029 13/09 A3017 RMK AO2
PAPH 200756Z AUTO 00000KT 10SM BKN031 13/09 A3017 RMK AO2 SLP221 T01330094 401610089
PAPH 200656Z AUTO 13008KT 10SM SCT033 OVC110 13/10 A3017 RMK AO2 SLP218 T01330100
PAPH 200639Z AUTO 16007KT 10SM SCT029 SCT033 OVC100 13/09 A3017 RMK AO2
PAPH 200616Z AUTO 17006KT 10SM OVC029 13/09 A3017 RMK AO2
PAPH 200556Z AUTO VRB06KT 10SM FEW028 BKN033 OVC060 13/10 A3017 RMK AO2 SLP218 60000 T01330100 10161 20122 58004
PAPH 200456Z AUTO 17008KT 10SM OVC032 13/10 A3017 RMK AO2 RAE19 SLP221 P0000 T01280100
PAPH 200356Z AUTO 15011KT 10SM -RA OVC040 13/09 A3018 RMK AO2 RAB52 SLP223 P0000 T01280094
PAPH 200256Z AUTO 16015KT 10SM SCT034 14/09 A3018 RMK AO2 SLP222 T01390089 58000
PAPH 200156Z AUTO 13016G25KT 10SM BKN035 16/09 A3019 RMK AO2 PK WND 16030/0139 SLP225 T01560089
PAPH 200056Z AUTO 16021G28KT 10SM CLR 15/09 A3017 RMK AO2 PK WND 15029/0037 SLP221 T01500089
PAPH 192356Z AUTO 15021G26KT 10SM CLR 14/08 A3018 RMK AO2 PK WND 15028/2344 SLP223 T01440083 10144 20128 50002
PAPH 192256Z AUTO 15022G28KT 10SM CLR 14/08 A3018 RMK AO2 PK WND 16028/2256 SLP223 T01390078
PAPH 192156Z AUTO 16022G29KT 10SM CLR 14/08 A3019 RMK AO2 PK WND 16031/2101 SLP226 T01390078
PAPH 192056Z AUTO 14023G30KT 10SM SCT110 14/07 A3017 RMK AO2 PK WND 16032/2015 SLP221 T01390072 55003
PAPH 191956Z AUTO 15022G27KT 10SM FEW060 SCT110 14/07 A3017 RMK AO2 PK WND 16029/1935 SLP220 T01440067